Time;durP1;ratioP1;P1;durP2;ratioP2;P2;SDS_P1;SDS_P2;PMS_P1;PMS_P2;Temp;Humidity;BMP_temperature;BMP_pressure;BME280_temperature;BME280_humidity;BME280_pressure;Samples;Min_cycle;Max_cycle;Signal;HPM_P1;HPM_P2
2023/03/27 00:01:42;;;;;;;;;2.67;2.67;;;;;;;;5071588;28;45920;-60
2023/03/27 00:04:08;;;;;;;;;3.00;1.33;;;;;;;;5071917;27;45551;-60
2023/03/27 00:06:33;;;;;;;;;3.00;3.00;;;;;;;;5073406;28;45419;-61
2023/03/27 00:08:58;;;;;;;;;2.67;2.33;;;;;;;;5075108;28;45653;-60
2023/03/27 00:11:24;;;;;;;;;1.33;1.33;;;;;;;;5067556;27;45557;-60
2023/03/27 00:13:52;;;;;;;;;1.00;1.00;;;;;;;;5073108;27;45507;-60
2023/03/27 00:16:18;;;;;;;;;1.00;1.00;;;;;;;;5077398;27;46188;-60
2023/03/27 00:18:44;;;;;;;;;1.33;1.33;;;;;;;;5077125;27;45410;-60
2023/03/27 00:21:09;;;;;;;;;1.00;0.00;;;;;;;;5071005;27;45518;-60
2023/03/27 00:23:35;;;;;;;;;1.67;1.67;;;;;;;;5076280;27;45606;-60
2023/03/27 00:26:00;;;;;;;;;1.00;1.00;;;;;;;;5076838;27;45548;-60
2023/03/27 00:28:28;;;;;;;;;2.33;1.33;;;;;;;;5076829;27;45463;-60
2023/03/27 00:30:54;;;;;;;;;1.67;0.67;;;;;;;;5070764;27;45531;-60
2023/03/27 00:33:20;;;;;;;;;3.00;1.67;;;;;;;;5074804;27;45538;-60
2023/03/27 00:35:46;;;;;;;;;1.00;0.00;;;;;;;;5076761;27;45493;-60
2023/03/27 00:38:11;;;;;;;;;1.67;1.00;;;;;;;;5076283;27;45776;-60
2023/03/27 00:40:36;;;;;;;;;1.67;1.67;;;;;;;;5075621;27;45717;-60
2023/03/27 00:43:17;;;;;;;;;1.00;1.00;;;;;;;;5076294;27;45498;-60
2023/03/27 00:45:43;;;;;;;;;1.00;1.00;;;;;;;;5076843;27;45541;-61
2023/03/27 00:48:08;;;;;;;;;2.67;2.00;;;;;;;;5076153;27;45517;-60
2023/03/27 00:50:36;;;;;;;;;3.33;1.33;;;;;;;;5074852;27;45960;-60
2023/03/27 00:53:06;;;;;;;;;1.67;1.33;;;;;;;;5075625;27;45462;-60
2023/03/27 00:55:35;;;;;;;;;5.67;2.00;;;;;;;;5074908;27;45485;-60
2023/03/27 00:58:02;;;;;;;;;4.00;1.00;;;;;;;;5076396;27;45421;-61
2023/03/27 01:00:28;;;;;;;;;0.00;0.00;;;;;;;;5075900;27;46254;-61
2023/03/27 01:02:54;;;;;;;;;1.67;1.00;;;;;;;;5069857;27;45608;-61
2023/03/27 01:05:20;;;;;;;;;1.00;1.00;;;;;;;;5072456;27;45558;-61
2023/03/27 01:07:47;;;;;;;;;1.00;1.00;;;;;;;;5076232;27;45573;-61
2023/03/27 01:10:13;;;;;;;;;1.00;1.00;;;;;;;;5068996;27;45576;-61
2023/03/27 01:12:57;;;;;;;;;2.00;1.00;;;;;;;;5070251;27;45462;-60
2023/03/27 01:15:41;;;;;;;;;5.00;2.00;;;;;;;;5070919;27;45506;-61
2023/03/27 01:18:06;;;;;;;;;1.00;1.00;;;;;;;;5075102;27;45712;-60
2023/03/27 01:20:50;;;;;;;;;1.00;1.00;;;;;;;;5074808;27;45525;-61
2023/03/27 01:23:34;;;;;;;;;1.67;0.67;;;;;;;;5075165;28;45662;-60
2023/03/27 01:26:18;;;;;;;;;2.00;2.00;;;;;;;;5064897;28;45531;-60
2023/03/27 01:28:53;;;;;;;;;2.00;2.00;;;;;;;;5075845;27;45540;-60
2023/03/27 01:31:37;;;;;;;;;1.00;1.00;;;;;;;;5061403;27;46090;-61
2023/03/27 01:34:08;;;;;;;;;1.00;1.00;;;;;;;;5074979;27;45468;-60
2023/03/27 01:36:54;;;;;;;;;1.67;1.67;;;;;;;;5073056;27;45497;-61
2023/03/27 01:39:44;;;;;;;;;2.33;2.33;;;;;;;;5074876;27;45574;-61
2023/03/27 01:42:15;;;;;;;;;1.00;1.00;;;;;;;;5074895;27;46023;-60
2023/03/27 01:44:50;;;;;;;;;1.67;1.67;;;;;;;;5074734;27;45584;-60
2023/03/27 01:47:20;;;;;;;;;1.33;1.33;;;;;;;;5074288;27;45439;-61
2023/03/27 01:50:12;;;;;;;;;1.00;1.00;;;;;;;;5075358;27;45486;-60
2023/03/27 01:52:40;;;;;;;;;2.00;2.00;;;;;;;;5056728;27;46008;-61
2023/03/27 01:55:09;;;;;;;;;2.00;2.00;;;;;;;;5074923;28;45559;-60
2023/03/27 01:57:40;;;;;;;;;2.00;2.00;;;;;;;;5071467;28;45558;-61
2023/03/27 02:00:16;;;;;;;;;1.67;1.67;;;;;;;;5075698;28;45480;-62
2023/03/27 02:02:45;;;;;;;;;3.00;3.00;;;;;;;;5073555;27;45592;-61
2023/03/27 02:05:17;;;;;;;;;5.00;5.00;;;;;;;;5075235;27;45362;-60
2023/03/27 02:07:46;;;;;;;;;5.00;4.33;;;;;;;;5074747;27;45833;-60
2023/03/27 02:10:16;;;;;;;;;7.00;5.00;;;;;;;;5075236;27;45470;-61
2023/03/27 02:12:49;;;;;;;;;4.67;4.67;;;;;;;;5067797;27;45796;-60
2023/03/27 02:15:17;;;;;;;;;5.33;4.33;;;;;;;;5064607;27;45508;-61
2023/03/27 02:17:46;;;;;;;;;1.00;1.00;;;;;;;;5075330;27;45442;-61
2023/03/27 02:20:14;;;;;;;;;2.33;2.00;;;;;;;;5075017;27;45460;-61
2023/03/27 02:22:40;;;;;;;;;1.67;1.67;;;;;;;;5074801;27;46150;-61
2023/03/27 02:25:25;;;;;;;;;2.00;2.00;;;;;;;;5074552;27;45467;-60
2023/03/27 02:27:56;;;;;;;;;1.33;0.00;;;;;;;;5074625;27;45504;-61
2023/03/27 02:30:25;;;;;;;;;3.00;1.33;;;;;;;;5074502;27;45514;-61
2023/03/27 02:32:59;;;;;;;;;2.33;2.00;;;;;;;;5071621;28;46189;-60
2023/03/27 02:35:40;;;;;;;;;1.00;1.00;;;;;;;;5073998;27;45420;-61
2023/03/27 02:38:07;;;;;;;;;1.00;1.00;;;;;;;;5074822;27;45447;-60
2023/03/27 02:40:41;;;;;;;;;2.67;1.67;;;;;;;;5074468;27;45584;-61
2023/03/27 02:43:26;;;;;;;;;1.33;1.33;;;;;;;;5066446;27;46355;-61
2023/03/27 02:46:11;;;;;;;;;1.00;1.00;;;;;;;;5060104;27;45579;-60
2023/03/27 02:48:39;;;;;;;;;3.00;1.00;;;;;;;;5074645;27;45437;-61
2023/03/27 02:51:19;;;;;;;;;2.33;1.67;;;;;;;;5074369;27;45430;-61
2023/03/27 02:54:23;;;;;;;;;2.67;2.67;;;;;;;;5059627;27;45656;-61
2023/03/27 02:56:51;;;;;;;;;3.00;2.00;;;;;;;;5006814;28;45893;-61
2023/03/27 02:59:29;;;;;;;;;0.00;0.00;;;;;;;;5011486;28;45559;-61
2023/03/27 03:01:54;;;;;;;;;3.00;0.33;;;;;;;;5036260;28;45493;-60
2023/03/27 03:04:25;;;;;;;;;0.67;0.00;;;;;;;;5072165;28;46123;-61
2023/03/27 03:06:50;;;;;;;;;3.00;0.33;;;;;;;;5072879;27;45494;-61
2023/03/27 03:09:17;;;;;;;;;3.33;1.33;;;;;;;;5074326;28;45516;-61
2023/03/27 03:11:45;;;;;;;;;3.33;1.00;;;;;;;;5073292;27;45592;-60
2023/03/27 03:14:10;;;;;;;;;1.00;1.00;;;;;;;;5072578;27;46152;-60
2023/03/27 03:16:35;;;;;;;;;1.33;1.33;;;;;;;;5059852;28;45438;-61
2023/03/27 03:19:01;;;;;;;;;1.00;1.00;;;;;;;;5074312;27;45491;-61
2023/03/27 03:21:26;;;;;;;;;2.00;2.00;;;;;;;;5074289;28;45556;-61
2023/03/27 03:23:51;;;;;;;;;2.00;2.00;;;;;;;;5073303;27;45607;-61
2023/03/27 03:26:16;;;;;;;;;0.67;0.67;;;;;;;;5063128;27;45621;-61
2023/03/27 03:28:42;;;;;;;;;1.00;0.00;;;;;;;;5074266;27;45424;-61
2023/03/27 03:31:09;;;;;;;;;0.00;0.00;;;;;;;;5074266;27;45468;-60
2023/03/27 03:33:36;;;;;;;;;3.00;1.00;;;;;;;;5072652;27;45495;-61
2023/03/27 03:36:01;;;;;;;;;1.00;1.00;;;;;;;;5074107;27;45486;-61
2023/03/27 03:38:28;;;;;;;;;2.67;1.33;;;;;;;;5073939;27;45572;-60
2023/03/27 03:40:54;;;;;;;;;2.00;2.00;;;;;;;;5069890;28;45453;-61
2023/03/27 03:43:20;;;;;;;;;2.00;2.00;;;;;;;;5068855;28;46003;-62
2023/03/27 03:45:45;;;;;;;;;3.33;1.00;;;;;;;;5072064;27;45793;-60
2023/03/27 03:48:10;;;;;;;;;2.67;1.00;;;;;;;;5073258;27;45574;-61
2023/03/27 03:50:36;;;;;;;;;1.00;1.00;;;;;;;;5074122;28;45636;-61
2023/03/27 03:53:01;;;;;;;;;1.00;1.00;;;;;;;;5073266;27;45442;-60
2023/03/27 03:55:26;;;;;;;;;2.00;1.00;;;;;;;;5072972;27;45549;-61
2023/03/27 03:57:51;;;;;;;;;3.00;1.00;;;;;;;;5073869;28;45458;-61
2023/03/27 04:00:17;;;;;;;;;1.33;0.33;;;;;;;;5074023;27;45562;-61
2023/03/27 04:02:43;;;;;;;;;3.33;0.00;;;;;;;;5072047;28;45949;-61
2023/03/27 04:05:08;;;;;;;;;1.00;0.00;;;;;;;;5073802;27;45453;-60
2023/03/27 04:07:34;;;;;;;;;1.00;1.00;;;;;;;;5073884;28;45450;-61
2023/03/27 04:10:00;;;;;;;;;1.00;1.00;;;;;;;;5073833;28;45501;-60
2023/03/27 04:12:25;;;;;;;;;0.33;0.33;;;;;;;;5062360;27;46146;-60
2023/03/27 04:14:51;;;;;;;;;1.00;1.00;;;;;;;;5072216;27;45573;-60
2023/03/27 04:17:16;;;;;;;;;2.00;2.00;;;;;;;;5072748;28;45613;-61
2023/03/27 04:19:45;;;;;;;;;3.00;2.00;;;;;;;;5073504;27;45592;-61
2023/03/27 04:22:11;;;;;;;;;1.00;0.00;;;;;;;;5072601;27;45488;-62
2023/03/27 04:24:36;;;;;;;;;2.33;1.00;;;;;;;;5071245;27;45522;-60
2023/03/27 04:27:01;;;;;;;;;2.00;2.00;;;;;;;;5062892;28;45496;-61
2023/03/27 04:29:30;;;;;;;;;3.67;1.33;;;;;;;;5073063;28;45445;-61
2023/03/27 04:31:56;;;;;;;;;0.67;0.67;;;;;;;;5072266;27;45514;-60
2023/03/27 04:34:21;;;;;;;;;1.00;1.00;;;;;;;;5072747;27;45480;-60
2023/03/27 04:36:47;;;;;;;;;2.00;2.00;;;;;;;;5071965;28;45569;-60
2023/03/27 04:39:15;;;;;;;;;3.00;1.33;;;;;;;;5072845;28;45505;-60
2023/03/27 04:41:44;;;;;;;;;1.33;1.33;;;;;;;;5071641;27;46224;-60
2023/03/27 04:44:10;;;;;;;;;1.33;1.33;;;;;;;;5071109;27;45468;-60
2023/03/27 04:46:35;;;;;;;;;3.00;1.00;;;;;;;;5072263;27;45506;-60
2023/03/27 04:49:00;;;;;;;;;1.00;1.00;;;;;;;;5073147;28;45486;-60
2023/03/27 04:51:25;;;;;;;;;1.00;1.00;;;;;;;;5072793;27;45583;-60
2023/03/27 04:53:51;;;;;;;;;1.00;1.00;;;;;;;;5071883;28;45488;-60
2023/03/27 04:56:16;;;;;;;;;2.00;1.00;;;;;;;;5066667;27;45504;-60
2023/03/27 04:58:45;;;;;;;;;1.00;1.00;;;;;;;;5076352;27;45791;-60
2023/03/27 05:01:11;;;;;;;;;1.67;1.67;;;;;;;;5075946;27;46179;-60
2023/03/27 05:03:37;;;;;;;;;1.00;1.00;;;;;;;;5075029;27;45643;-60
2023/03/27 05:06:04;;;;;;;;;2.33;2.33;;;;;;;;5075870;27;45520;-60
2023/03/27 05:08:29;;;;;;;;;1.00;1.00;;;;;;;;5076459;27;45589;-60
2023/03/27 05:10:55;;;;;;;;;1.00;1.00;;;;;;;;5061866;28;46318;-60
2023/03/27 05:13:20;;;;;;;;;1.33;1.33;;;;;;;;5074959;27;45454;-60
2023/03/27 05:15:45;;;;;;;;;0.67;0.67;;;;;;;;5076107;27;45447;-63
2023/03/27 05:18:11;;;;;;;;;2.00;2.00;;;;;;;;5062189;28;45464;-60
2023/03/27 05:20:36;;;;;;;;;3.00;2.00;;;;;;;;5066730;27;45511;-62
2023/03/27 05:23:02;;;;;;;;;1.67;1.67;;;;;;;;5068255;27;45436;-61
2023/03/27 05:25:30;;;;;;;;;1.33;1.00;;;;;;;;5076230;27;45483;-60
2023/03/27 05:27:56;;;;;;;;;2.67;2.00;;;;;;;;5075515;27;45441;-61
2023/03/27 05:30:22;;;;;;;;;4.00;1.00;;;;;;;;5074994;27;45558;-60
2023/03/27 05:32:48;;;;;;;;;5.00;1.67;;;;;;;;5074075;27;45789;-61
2023/03/27 05:35:17;;;;;;;;;2.00;1.00;;;;;;;;5074590;27;45488;-61
2023/03/27 05:37:46;;;;;;;;;1.00;1.00;;;;;;;;5075450;27;45489;-60
2023/03/27 05:40:14;;;;;;;;;5.00;2.00;;;;;;;;5072620;27;45545;-61
2023/03/27 05:42:43;;;;;;;;;1.00;1.00;;;;;;;;5075394;27;45477;-60
2023/03/27 05:45:08;;;;;;;;;3.00;1.00;;;;;;;;5066615;27;45460;-61
2023/03/27 05:47:41;;;;;;;;;2.00;2.00;;;;;;;;5068292;27;45546;-60
2023/03/27 05:50:06;;;;;;;;;1.00;1.00;;;;;;;;5071870;27;45489;-60
2023/03/27 05:52:32;;;;;;;;;2.00;1.00;;;;;;;;5071977;27;45395;-61
2023/03/27 05:54:57;;;;;;;;;2.00;2.00;;;;;;;;5071742;27;45563;-61
2023/03/27 05:57:22;;;;;;;;;1.00;1.00;;;;;;;;5075413;27;45602;-60
2023/03/27 05:59:48;;;;;;;;;1.00;1.00;;;;;;;;5074357;27;45430;-60
2023/03/27 06:02:17;;;;;;;;;1.00;1.00;;;;;;;;5074624;27;45579;-60
2023/03/27 06:04:42;;;;;;;;;2.00;2.00;;;;;;;;5074767;27;45494;-60
2023/03/27 06:07:07;;;;;;;;;5.67;3.00;;;;;;;;5068171;28;45641;-60
2023/03/27 06:09:34;;;;;;;;;2.00;2.00;;;;;;;;5059415;28;48348;-60
2023/03/27 06:11:59;;;;;;;;;1.00;1.00;;;;;;;;5063430;27;45591;-60
2023/03/27 06:14:24;;;;;;;;;4.00;4.00;;;;;;;;5069515;27;45540;-60
2023/03/27 06:16:50;;;;;;;;;3.00;1.67;;;;;;;;5062411;27;45527;-60
2023/03/27 06:19:16;;;;;;;;;2.67;2.67;;;;;;;;5054125;27;46065;-60
2023/03/27 06:21:41;;;;;;;;;2.00;2.00;;;;;;;;5064894;27;45556;-59
2023/03/27 06:24:07;;;;;;;;;3.67;2.33;;;;;;;;5056025;28;45499;-61
2023/03/27 06:26:32;;;;;;;;;2.00;2.00;;;;;;;;5056477;27;45662;-59
2023/03/27 06:28:58;;;;;;;;;1.00;1.00;;;;;;;;5067572;27;45667;-60
2023/03/27 06:31:24;;;;;;;;;2.33;2.33;;;;;;;;5069992;27;45587;-61
2023/03/27 06:33:49;;;;;;;;;2.00;2.00;;;;;;;;5071631;27;45527;-67
2023/03/27 06:36:14;;;;;;;;;2.00;2.00;;;;;;;;5067451;27;45406;-67
2023/03/27 06:38:40;;;;;;;;;1.33;1.33;;;;;;;;5073195;27;45724;-65
2023/03/27 06:41:05;;;;;;;;;3.00;2.00;;;;;;;;5063181;27;45454;-66
2023/03/27 06:43:30;;;;;;;;;3.67;3.00;;;;;;;;5069952;27;45441;-57
2023/03/27 06:45:55;;;;;;;;;1.33;1.33;;;;;;;;5066221;27;45417;-58
2023/03/27 06:48:22;;;;;;;;;2.33;2.33;;;;;;;;5073496;27;45532;-60
2023/03/27 06:50:48;;;;;;;;;2.00;2.00;;;;;;;;5069931;27;45495;-63
2023/03/27 06:53:16;;;;;;;;;1.67;1.67;;;;;;;;5070053;27;45584;-53
2023/03/27 06:55:41;;;;;;;;;1.00;1.00;;;;;;;;5071736;27;45719;-58
2023/03/27 06:58:07;;;;;;;;;4.00;2.00;;;;;;;;5074043;27;46072;-58
2023/03/27 07:00:34;;;;;;;;;1.00;1.00;;;;;;;;5073579;27;45556;-58
2023/03/27 07:03:03;;;;;;;;;1.00;1.00;;;;;;;;5072365;27;45473;-59
2023/03/27 07:05:31;;;;;;;;;3.00;2.00;;;;;;;;5073498;28;45367;-58
2023/03/27 07:07:56;;;;;;;;;2.00;2.00;;;;;;;;5073127;27;46113;-58
2023/03/27 07:10:23;;;;;;;;;4.00;3.00;;;;;;;;5073272;27;45544;-59
2023/03/27 07:12:49;;;;;;;;;1.00;1.00;;;;;;;;5073439;28;45429;-58
2023/03/27 07:15:15;;;;;;;;;2.33;2.00;;;;;;;;5072931;27;45620;-58
2023/03/27 07:17:42;;;;;;;;;1.33;1.33;;;;;;;;5072200;27;45554;-59
2023/03/27 07:20:09;;;;;;;;;4.00;4.00;;;;;;;;5073024;27;45630;-58
2023/03/27 07:22:34;;;;;;;;;4.00;3.67;;;;;;;;5073264;27;45510;-57
2023/03/27 07:24:59;;;;;;;;;2.00;2.00;;;;;;;;5073078;27;45558;-57
2023/03/27 07:27:24;;;;;;;;;1.33;1.33;;;;;;;;5073007;27;45581;-58
2023/03/27 07:29:50;;;;;;;;;2.33;2.00;;;;;;;;5072857;27;45545;-58
2023/03/27 07:32:15;;;;;;;;;2.67;2.67;;;;;;;;5073126;27;45671;-57
2023/03/27 07:34:41;;;;;;;;;2.00;2.00;;;;;;;;5073136;27;45619;-57
2023/03/27 07:37:06;;;;;;;;;3.00;3.00;;;;;;;;5072987;27;46265;-58
2023/03/27 07:39:31;;;;;;;;;2.00;2.00;;;;;;;;5073105;27;45515;-58
2023/03/27 07:41:56;;;;;;;;;2.00;1.33;;;;;;;;5072874;27;45594;-58
2023/03/27 07:44:21;;;;;;;;;2.00;2.00;;;;;;;;5072985;27;45608;-58
2023/03/27 07:46:50;;;;;;;;;3.33;3.00;;;;;;;;5072755;27;46142;-59
2023/03/27 07:49:16;;;;;;;;;4.00;4.00;;;;;;;;5072754;28;45636;-59
2023/03/27 07:51:41;;;;;;;;;3.00;2.00;;;;;;;;5072884;27;45730;-59
2023/03/27 07:54:06;;;;;;;;;2.00;2.00;;;;;;;;5072865;27;45596;-58
2023/03/27 07:56:32;;;;;;;;;1.00;1.00;;;;;;;;5072780;27;46769;-59
2023/03/27 07:58:58;;;;;;;;;1.00;1.00;;;;;;;;5072489;27;45505;-60
2023/03/27 08:01:24;;;;;;;;;3.00;2.00;;;;;;;;5072811;28;45474;-59
2023/03/27 08:03:50;;;;;;;;;1.67;1.67;;;;;;;;5073031;27;45541;-59
2023/03/27 08:06:16;;;;;;;;;2.00;1.00;;;;;;;;5072246;27;45519;-60
2023/03/27 08:08:41;;;;;;;;;1.33;0.67;;;;;;;;5072726;27;45370;-59
2023/03/27 08:11:07;;;;;;;;;1.33;0.00;;;;;;;;5071136;27;45546;-59
2023/03/27 08:13:33;;;;;;;;;1.00;1.00;;;;;;;;5072443;27;45596;-59
2023/03/27 08:16:02;;;;;;;;;1.67;0.33;;;;;;;;5072149;27;46199;-59
2023/03/27 08:18:27;;;;;;;;;0.33;0.33;;;;;;;;5072692;28;45540;-60
2023/03/27 08:20:56;;;;;;;;;0.00;0.00;;;;;;;;5072526;27;45524;-58
2023/03/27 08:23:21;;;;;;;;;0.00;0.00;;;;;;;;5072480;27;45431;-55
2023/03/27 08:25:49;;;;;;;;;2.00;1.00;;;;;;;;5072604;27;46081;-57
2023/03/27 08:28:14;;;;;;;;;0.67;0.67;;;;;;;;5070924;27;45529;-57
2023/03/27 08:30:40;;;;;;;;;1.00;1.00;;;;;;;;5074818;27;45564;-57
2023/03/27 08:33:08;;;;;;;;;0.67;0.67;;;;;;;;5075922;27;45642;-58
2023/03/27 08:35:33;;;;;;;;;1.00;1.00;;;;;;;;5076025;27;45517;-57
2023/03/27 08:37:59;;;;;;;;;2.00;1.00;;;;;;;;5075965;27;45418;-57
2023/03/27 08:40:26;;;;;;;;;1.00;1.00;;;;;;;;5075871;27;45568;-58
2023/03/27 08:42:53;;;;;;;;;0.00;0.00;;;;;;;;5075981;27;45477;-55
2023/03/27 08:45:22;;;;;;;;;2.00;2.00;;;;;;;;5075513;27;46226;-58
2023/03/27 08:47:57;;;;;;;;;2.67;2.00;;;;;;;;5075686;27;45529;-57
2023/03/27 08:50:37;;;;;;;;;1.67;1.67;;;;;;;;5075771;27;45428;-57
2023/03/27 08:53:06;;;;;;;;;1.00;1.00;;;;;;;;5075869;27;45638;-58
2023/03/27 08:55:39;;;;;;;;;1.00;1.00;;;;;;;;5074806;27;46197;-57
2023/03/27 08:58:04;;;;;;;;;1.33;1.33;;;;;;;;5075556;27;45554;-57
2023/03/27 09:00:33;;;;;;;;;1.00;1.00;;;;;;;;5075575;27;45444;-58
2023/03/27 09:03:03;;;;;;;;;0.33;0.00;;;;;;;;5075180;27;45597;-58
2023/03/27 09:05:39;;;;;;;;;1.67;1.67;;;;;;;;5075598;27;46210;-59
2023/03/27 09:08:14;;;;;;;;;2.33;1.33;;;;;;;;5075285;27;45532;-58
2023/03/27 09:10:44;;;;;;;;;2.00;1.00;;;;;;;;5075474;27;45576;-58
2023/03/27 09:13:28;;;;;;;;;3.67;1.00;;;;;;;;5075295;27;45615;-59
2023/03/27 09:15:59;;;;;;;;;4.00;2.00;;;;;;;;5074848;27;45521;-58
2023/03/27 09:18:29;;;;;;;;;2.67;2.00;;;;;;;;5073756;27;45479;-59
2023/03/27 09:20:58;;;;;;;;;1.33;1.33;;;;;;;;5074128;27;46219;-58
2023/03/27 09:23:29;;;;;;;;;2.67;2.00;;;;;;;;5075090;27;45658;-57
2023/03/27 09:26:00;;;;;;;;;10.00;5.00;;;;;;;;5073620;27;46155;-58
2023/03/27 09:28:30;;;;;;;;;2.00;2.00;;;;;;;;5075060;27;45429;-59
2023/03/27 09:30:56;;;;;;;;;2.00;2.00;;;;;;;;5075025;27;45469;-59
2023/03/27 09:33:23;;;;;;;;;2.00;2.00;;;;;;;;5073441;27;45530;-58
2023/03/27 09:35:48;;;;;;;;;4.00;4.00;;;;;;;;5073457;27;47756;-58
2023/03/27 09:38:16;;;;;;;;;2.00;2.00;;;;;;;;5074876;27;45457;-59
2023/03/27 09:40:47;;;;;;;;;3.00;3.00;;;;;;;;5074753;27;45479;-59
2023/03/27 09:43:21;;;;;;;;;3.33;2.00;;;;;;;;5074315;27;45575;-59
2023/03/27 09:45:46;;;;;;;;;3.33;3.00;;;;;;;;5074858;27;46151;-58
2023/03/27 09:48:21;;;;;;;;;5.00;4.00;;;;;;;;5074516;27;45485;-59
2023/03/27 09:50:48;;;;;;;;;4.00;2.00;;;;;;;;5074975;27;45753;-59
2023/03/27 09:53:18;;;;;;;;;2.00;2.00;;;;;;;;5074722;27;45556;-59
2023/03/27 09:55:48;;;;;;;;;3.33;3.33;;;;;;;;5074666;27;45954;-57
2023/03/27 09:58:17;;;;;;;;;3.67;2.67;;;;;;;;5074660;27;45538;-59
2023/03/27 10:00:42;;;;;;;;;1.00;1.00;;;;;;;;5074529;27;45453;-58
2023/03/27 10:03:15;;;;;;;;;1.00;1.00;;;;;;;;5074550;27;45420;-59
2023/03/27 10:05:41;;;;;;;;;1.00;1.00;;;;;;;;5075687;27;45520;-59
2023/03/27 10:08:25;;;;;;;;;1.00;1.00;;;;;;;;5075133;27;45532;-59
2023/03/27 10:10:59;;;;;;;;;2.00;2.00;;;;;;;;5074610;27;45465;-58
2023/03/27 10:13:26;;;;;;;;;3.00;2.00;;;;;;;;5074808;27;45513;-58
2023/03/27 10:15:57;;;;;;;;;1.00;0.00;;;;;;;;5074159;27;45504;-58
2023/03/27 10:18:26;;;;;;;;;3.00;1.67;;;;;;;;5074098;27;45449;-59
2023/03/27 10:20:57;;;;;;;;;1.33;1.00;;;;;;;;5074185;27;45493;-59
2023/03/27 10:23:26;;;;;;;;;1.00;1.00;;;;;;;;5072620;27;45622;-58
2023/03/27 10:25:52;;;;;;;;;2.00;2.00;;;;;;;;5074028;27;45580;-58
2023/03/27 10:28:20;;;;;;;;;1.00;1.00;;;;;;;;5073779;27;45631;-59
2023/03/27 10:30:45;;;;;;;;;6.00;2.00;;;;;;;;5072955;27;46157;-59
2023/03/27 10:33:11;;;;;;;;;2.00;2.00;;;;;;;;5071992;27;45435;-59
2023/03/27 10:35:38;;;;;;;;;0.67;0.67;;;;;;;;5073967;27;45480;-60
2023/03/27 10:38:06;;;;;;;;;3.33;1.00;;;;;;;;5073527;27;45770;-59
2023/03/27 10:40:35;;;;;;;;;1.00;1.00;;;;;;;;5073661;27;45623;-57
2023/03/27 10:43:03;;;;;;;;;0.67;0.67;;;;;;;;5073693;27;45572;-60
2023/03/27 10:45:30;;;;;;;;;0.00;0.00;;;;;;;;5073324;27;46491;-58
2023/03/27 10:47:58;;;;;;;;;1.67;1.00;;;;;;;;5073713;27;45605;-58
2023/03/27 10:50:23;;;;;;;;;1.00;1.00;;;;;;;;5073528;27;45532;-58
2023/03/27 10:52:51;;;;;;;;;1.00;1.00;;;;;;;;5072628;27;45401;-58
2023/03/27 10:55:22;;;;;;;;;1.00;1.00;;;;;;;;5073531;27;45524;-59
2023/03/27 10:57:52;;;;;;;;;1.00;1.00;;;;;;;;5073463;27;45516;-59
2023/03/27 11:00:31;;;;;;;;;1.00;1.00;;;;;;;;5073494;27;45437;-58
2023/03/27 11:03:02;;;;;;;;;0.00;0.00;;;;;;;;5073570;27;45678;-59
2023/03/27 11:05:30;;;;;;;;;2.33;1.00;;;;;;;;5071806;27;47068;-58
2023/03/27 11:08:07;;;;;;;;;3.00;1.33;;;;;;;;5065075;27;45579;-59
2023/03/27 11:10:40;;;;;;;;;1.00;1.00;;;;;;;;5066094;27;45559;-59
2023/03/27 11:13:12;;;;;;;;;6.33;5.67;;;;;;;;5066439;27;45504;-57
2023/03/27 11:15:41;;;;;;;;;17.50;17.50;;;;;;;;5060463;27;45459;-57
2023/03/27 11:18:09;;;;;;;;;8.00;8.00;;;;;;;;5059578;27;45587;-57
2023/03/27 11:20:39;;;;;;;;;0.33;0.33;;;;;;;;5074230;28;45592;-58
2023/03/27 11:23:14;;;;;;;;;3.67;0.00;;;;;;;;5072123;27;45451;-56
2023/03/27 11:25:46;;;;;;;;;1.00;1.00;;;;;;;;5072304;27;45474;-58
2023/03/27 11:28:14;;;;;;;;;1.00;1.00;;;;;;;;5073212;27;45474;-58
2023/03/27 11:30:54;;;;;;;;;0.33;0.33;;;;;;;;5070760;28;45588;-58
2023/03/27 11:33:23;;;;;;;;;3.00;1.33;;;;;;;;5086418;27;45598;-59
2023/03/27 11:35:52;;;;;;;;;1.00;1.00;;;;;;;;5064192;27;45509;-58
2023/03/27 11:38:40;;;;;;;;;1.00;1.00;;;;;;;;5074060;27;45418;-58
2023/03/27 11:41:06;;;;;;;;;3.00;2.00;;;;;;;;5072382;28;45438;-59
2023/03/27 11:43:32;;;;;;;;;1.33;1.00;;;;;;;;5074596;28;45452;-59
2023/03/27 11:46:16;;;;;;;;;1.00;1.00;;;;;;;;5074478;27;45489;-59
2023/03/27 11:48:56;;;;;;;;;1.00;1.00;;;;;;;;5067915;28;45422;-58
2023/03/27 11:51:21;;;;;;;;;2.00;2.00;;;;;;;;5069855;27;45519;-60
2023/03/27 11:53:53;;;;;;;;;2.00;2.00;;;;;;;;5066070;27;45406;-57
2023/03/27 11:56:39;;;;;;;;;0.00;0.00;;;;;;;;5060786;27;46233;-58
2023/03/27 11:59:23;;;;;;;;;1.00;1.00;;;;;;;;5057078;27;45527;-58
2023/03/27 12:02:08;;;;;;;;;3.00;3.00;;;;;;;;5073466;27;45586;-58
2023/03/27 12:04:37;;;;;;;;;2.00;1.00;;;;;;;;5075335;27;45501;-59
2023/03/27 12:07:06;;;;;;;;;1.00;1.00;;;;;;;;5076572;27;45392;-59
2023/03/27 12:09:46;;;;;;;;;3.00;2.00;;;;;;;;5076522;27;45496;-59
2023/03/27 12:12:11;;;;;;;;;1.00;1.00;;;;;;;;5076648;27;45446;-58
2023/03/27 12:14:40;;;;;;;;;2.67;0.00;;;;;;;;5076590;27;45497;-58
2023/03/27 12:17:11;;;;;;;;;2.33;1.00;;;;;;;;5076870;27;45811;-59
2023/03/27 12:19:36;;;;;;;;;1.00;1.00;;;;;;;;5076709;28;45509;-58
2023/03/27 12:22:20;;;;;;;;;0.33;0.33;;;;;;;;5076884;27;45491;-58
2023/03/27 12:25:02;;;;;;;;;1.00;1.00;;;;;;;;5076652;27;45596;-57
2023/03/27 12:27:27;;;;;;;;;0.00;0.00;;;;;;;;5075936;27;45519;-59
2023/03/27 12:29:56;;;;;;;;;2.00;2.00;;;;;;;;5076488;27;45482;-58
2023/03/27 12:32:44;;;;;;;;;1.00;1.00;;;;;;;;5077023;27;45471;-58
2023/03/27 12:35:17;;;;;;;;;0.67;0.67;;;;;;;;5050560;28;45594;-59
2023/03/27 12:37:47;;;;;;;;;1.00;1.00;;;;;;;;5076655;27;45539;-58
2023/03/27 12:40:33;;;;;;;;;1.00;1.00;;;;;;;;5076505;27;45571;-58
2023/03/27 12:43:07;;;;;;;;;1.00;1.00;;;;;;;;5069080;27;45555;-58
2023/03/27 12:45:33;;;;;;;;;1.00;1.00;;;;;;;;5076784;27;45574;-58
2023/03/27 12:48:10;;;;;;;;;1.00;1.00;;;;;;;;5076369;27;46234;-58
2023/03/27 12:50:51;;;;;;;;;1.00;1.00;;;;;;;;5075099;27;45519;-58
2023/03/27 12:53:25;;;;;;;;;1.33;1.33;;;;;;;;5076416;27;45616;-59
2023/03/27 12:56:24;;;;;;;;;2.00;2.00;;;;;;;;5074967;27;45558;-58
2023/03/27 12:58:50;;;;;;;;;2.00;2.00;;;;;;;;5043425;28;46139;-58
2023/03/27 13:01:27;;;;;;;;;10.33;6.67;;;;;;;;5075799;27;45607;-59
2023/03/27 13:04:04;;;;;;;;;3.67;2.00;;;;;;;;5076425;27;45508;-58
2023/03/27 13:06:35;;;;;;;;;1.33;1.33;;;;;;;;5076290;27;45498;-59
2023/03/27 13:09:19;;;;;;;;;1.00;1.00;;;;;;;;5075995;27;45457;-59
2023/03/27 13:12:07;;;;;;;;;1.00;1.00;;;;;;;;5076171;27;45506;-58
2023/03/27 13:14:32;;;;;;;;;0.67;0.67;;;;;;;;5070316;27;45535;-58
2023/03/27 13:17:18;;;;;;;;;6.33;5.00;;;;;;;;5075565;27;45602;-58
2023/03/27 13:19:52;;;;;;;;;1.00;1.00;;;;;;;;5076074;27;46093;-58
2023/03/27 13:22:17;;;;;;;;;5.00;2.00;;;;;;;;5076242;27;45478;-59
2023/03/27 13:24:53;;;;;;;;;1.00;1.00;;;;;;;;5075786;27;45621;-58
2023/03/27 13:27:19;;;;;;;;;2.00;2.00;;;;;;;;5076660;27;45412;-58
2023/03/27 13:29:51;;;;;;;;;2.67;2.67;;;;;;;;5078137;27;46272;-58
2023/03/27 13:32:32;;;;;;;;;2.00;1.33;;;;;;;;5076638;27;45555;-60
2023/03/27 13:35:16;;;;;;;;;1.00;1.00;;;;;;;;5076069;27;45512;-57
2023/03/27 13:37:47;;;;;;;;;1.67;1.67;;;;;;;;5076146;27;45558;-57
2023/03/27 13:40:22;;;;;;;;;0.00;0.00;;;;;;;;5075128;27;45501;-60
2023/03/27 13:42:50;;;;;;;;;1.00;1.00;;;;;;;;5075956;27;45464;-57
2023/03/27 13:45:30;;;;;;;;;0.00;0.00;;;;;;;;5077334;27;45541;-58
2023/03/27 13:48:14;;;;;;;;;1.00;1.00;;;;;;;;5075720;27;45663;-57
2023/03/27 13:50:50;;;;;;;;;1.00;1.00;;;;;;;;5075746;27;46383;-57
2023/03/27 13:53:21;;;;;;;;;2.00;1.67;;;;;;;;5078403;27;45450;-60
2023/03/27 13:56:13;;;;;;;;;6.33;3.00;;;;;;;;5078433;27;45604;-58
2023/03/27 13:58:41;;;;;;;;;2.67;2.00;;;;;;;;5078862;27;45524;-58
2023/03/27 14:01:16;;;;;;;;;2.00;1.00;;;;;;;;5078656;27;45440;-58
2023/03/27 14:03:47;;;;;;;;;0.00;0.00;;;;;;;;5075651;27;45492;-59
2023/03/27 14:06:32;;;;;;;;;2.00;2.00;;;;;;;;5075474;27;45427;-58
2023/03/27 14:09:05;;;;;;;;;2.00;2.00;;;;;;;;5075629;27;45526;-58
2023/03/27 14:11:42;;;;;;;;;2.00;2.00;;;;;;;;5075396;27;46224;-57
2023/03/27 14:14:40;;;;;;;;;0.00;0.00;;;;;;;;5075827;27;45631;-57
2023/03/27 14:17:05;;;;;;;;;1.00;1.00;;;;;;;;5044697;28;46012;-57
2023/03/27 14:19:57;;;;;;;;;3.00;2.00;;;;;;;;5071156;27;45411;-58
2023/03/27 14:22:26;;;;;;;;;2.00;2.00;;;;;;;;5059528;27;46115;-58
2023/03/27 14:24:56;;;;;;;;;2.00;2.00;;;;;;;;5075998;27;45519;-58
2023/03/27 14:27:22;;;;;;;;;1.00;1.00;;;;;;;;5073940;27;45499;-58
2023/03/27 14:30:08;;;;;;;;;3.00;2.33;;;;;;;;5074734;27;45618;-57
2023/03/27 14:32:34;;;;;;;;;0.00;0.00;;;;;;;;5043164;28;45464;-58
2023/03/27 14:35:03;;;;;;;;;1.00;1.00;;;;;;;;5072516;27;44889;-58
2023/03/27 14:37:29;;;;;;;;;1.33;1.00;;;;;;;;5077862;27;45728;-58
2023/03/27 14:39:55;;;;;;;;;1.00;1.00;;;;;;;;5077360;27;45544;-57
2023/03/27 14:42:25;;;;;;;;;1.00;1.00;;;;;;;;5076259;27;45592;-57
2023/03/27 14:44:52;;;;;;;;;1.00;1.00;;;;;;;;5074959;27;45339;-58
2023/03/27 14:47:20;;;;;;;;;1.00;1.00;;;;;;;;5075065;27;44947;-57
2023/03/27 14:49:47;;;;;;;;;1.67;1.00;;;;;;;;5075523;27;45531;-58
2023/03/27 14:52:28;;;;;;;;;2.33;2.33;;;;;;;;5074885;27;46270;-57
2023/03/27 14:54:56;;;;;;;;;2.67;1.00;;;;;;;;5076621;27;45509;-58
2023/03/27 14:57:24;;;;;;;;;1.00;1.00;;;;;;;;5075120;27;46022;-58
2023/03/27 14:59:50;;;;;;;;;0.00;0.00;;;;;;;;5075068;27;45560;-58